Time;durP1;ratioP1;P1;durP2;ratioP2;P2;SDS_P1;SDS_P2;PMS_P1;PMS_P2;Temp;Humidity;BMP_temperature;BMP_pressure;BME280_temperature;BME280_humidity;BME280_pressure;Samples;Min_cycle;Max_cycle;Signal;HPM_P1;HPM_P2
2022/04/03 00:02:21;;;;;;;4.00;2.58;;;;;;;;;;5056187;28;20072;-72
2022/04/03 00:04:53;;;;;;;3.50;2.40;;;;;;;;;;5056477;28;20049;-73
2022/04/03 00:07:22;;;;;;;3.53;2.50;;;;;;;;;;5056058;28;20117;-72
2022/04/03 00:09:55;;;;;;;7.22;2.58;;;;;;;;;;5056262;28;20033;-72
2022/04/03 00:12:34;;;;;;;5.80;3.15;;;;;;;;;;5055824;28;20055;-72
2022/04/03 00:15:27;;;;;;;6.03;2.97;;;;;;;;;;5055700;28;20064;-72
2022/04/03 00:17:57;;;;;;;3.80;2.58;;;;;;;;;;5055859;28;20044;-73
2022/04/03 00:20:31;;;;;;;4.82;2.67;;;;;;;;;;5056198;28;20060;-73
2022/04/03 00:22:59;;;;;;;3.60;2.50;;;;;;;;;;5055516;28;20499;-73
2022/04/03 00:25:29;;;;;;;4.85;2.67;;;;;;;;;;5055586;28;20487;-73
2022/04/03 00:28:21;;;;;;;4.82;2.90;;;;;;;;;;5055786;28;20491;-72
2022/04/03 00:30:50;;;;;;;5.10;2.92;;;;;;;;;;5056082;28;20095;-72
2022/04/03 00:33:18;;;;;;;4.68;2.80;;;;;;;;;;5055316;28;20102;-72
2022/04/03 00:35:53;;;;;;;3.70;2.80;;;;;;;;;;5055642;28;20045;-71
2022/04/03 00:38:21;;;;;;;5.88;3.33;;;;;;;;;;5055447;28;20487;-72
2022/04/03 00:40:50;;;;;;;4.95;3.00;;;;;;;;;;5055180;28;20518;-73
2022/04/03 00:43:17;;;;;;;5.00;3.15;;;;;;;;;;5054553;28;20049;-72
2022/04/03 00:45:52;;;;;;;5.70;3.20;;;;;;;;;;5055307;28;20048;-72
2022/04/03 00:48:19;;;;;;;6.55;3.13;;;;;;;;;;5055423;28;20116;-73
2022/04/03 00:50:52;;;;;;;5.13;3.28;;;;;;;;;;5055307;28;20045;-73
2022/04/03 00:53:20;;;;;;;6.18;2.95;;;;;;;;;;5054690;28;20464;-72
2022/04/03 00:55:51;;;;;;;5.88;3.42;;;;;;;;;;5055392;28;20047;-71
2022/04/03 00:58:24;;;;;;;6.80;3.30;;;;;;;;;;5055057;28;20040;-72
2022/04/03 01:00:52;;;;;;;5.90;3.22;;;;;;;;;;5055799;28;20041;-72
2022/04/03 01:03:25;;;;;;;6.00;3.38;;;;;;;;;;5053756;28;20041;-72
2022/04/03 01:05:56;;;;;;;5.13;2.90;;;;;;;;;;5055266;28;20578;-71
2022/04/03 01:08:24;;;;;;;5.78;3.75;;;;;;;;;;5055256;28;20040;-72
2022/04/03 01:10:53;;;;;;;4.82;3.10;;;;;;;;;;5055346;28;20041;-72
2022/04/03 01:13:25;;;;;;;6.10;3.10;;;;;;;;;;5054738;28;20045;-74
2022/04/03 01:15:59;;;;;;;4.45;3.38;;;;;;;;;;5054941;28;20044;-73
2022/04/03 01:18:30;;;;;;;5.50;3.08;;;;;;;;;;5053632;28;20049;-73
2022/04/03 01:21:00;;;;;;;5.55;3.08;;;;;;;;;;5055076;28;20075;-72
2022/04/03 01:23:31;;;;;;;5.68;3.10;;;;;;;;;;5054690;28;20099;-73
2022/04/03 01:26:03;;;;;;;5.93;3.17;;;;;;;;;;5054642;28;20045;-73
2022/04/03 01:28:36;;;;;;;5.72;3.00;;;;;;;;;;5054374;28;20442;-73
2022/04/03 01:31:06;;;;;;;4.63;2.97;;;;;;;;;;5054659;28;20518;-73
2022/04/03 01:33:36;;;;;;;5.38;3.10;;;;;;;;;;5054544;28;20037;-73
2022/04/03 01:36:07;;;;;;;6.53;3.28;;;;;;;;;;5054611;28;20049;-72
2022/04/03 01:38:36;;;;;;;4.72;3.00;;;;;;;;;;5054616;28;20087;-72
2022/04/03 01:41:04;;;;;;;5.63;3.10;;;;;;;;;;5054917;28;20047;-73
2022/04/03 01:43:38;;;;;;;5.25;3.00;;;;;;;;;;5054123;28;20053;-72
2022/04/03 01:46:12;;;;;;;5.53;3.40;;;;;;;;;;5053497;28;20380;-72
2022/04/03 01:48:39;;;;;;;5.75;3.53;;;;;;;;;;5054403;28;20129;-72
2022/04/03 01:51:12;;;;;;;6.15;3.58;;;;;;;;;;5054166;28;20040;-72
2022/04/03 01:53:42;;;;;;;7.15;3.00;;;;;;;;;;5053889;28;20488;-72
2022/04/03 01:56:14;;;;;;;5.78;3.22;;;;;;;;;;5054007;28;20041;-72
2022/04/03 01:58:42;;;;;;;6.25;3.40;;;;;;;;;;5054361;28;20065;-72
2022/04/03 02:01:35;;;;;;;5.55;3.25;;;;;;;;;;5053853;28;20041;-73
2022/04/03 02:04:08;;;;;;;5.25;3.00;;;;;;;;;;5054256;28;20098;-72
2022/04/03 02:06:41;;;;;;;7.72;3.10;;;;;;;;;;5054367;28;20049;-73
2022/04/03 02:09:09;;;;;;;5.57;3.20;;;;;;;;;;5053781;28;20040;-72
2022/04/03 02:11:38;;;;;;;6.20;3.35;;;;;;;;;;5054023;28;20383;-72
2022/04/03 02:14:11;;;;;;;5.60;3.30;;;;;;;;;;5054347;28;20049;-72
2022/04/03 02:16:44;;;;;;;6.10;3.10;;;;;;;;;;5053411;28;20053;-72
2022/04/03 02:19:17;;;;;;;6.18;2.83;;;;;;;;;;5053787;28;20040;-72
2022/04/03 02:21:45;;;;;;;5.75;3.20;;;;;;;;;;5053935;28;20048;-72
2022/04/03 02:24:16;;;;;;;4.40;3.05;;;;;;;;;;5053550;28;20041;-72
2022/04/03 02:26:52;;;;;;;4.68;2.95;;;;;;;;;;5053636;28;20047;-72
2022/04/03 02:29:27;;;;;;;4.53;3.22;;;;;;;;;;5052284;28;20048;-72
2022/04/03 02:31:55;;;;;;;5.40;3.22;;;;;;;;;;5053372;28;20064;-72
2022/04/03 02:34:27;;;;;;;13.60;4.18;;;;;;;;;;5053491;28;20479;-72
2022/04/03 02:36:55;;;;;;;5.38;3.03;;;;;;;;;;5053255;28;20446;-72
2022/04/03 02:39:48;;;;;;;7.05;3.50;;;;;;;;;;5053636;28;20045;-72
2022/04/03 02:42:16;;;;;;;6.80;3.10;;;;;;;;;;5051634;28;20495;-72
2022/04/03 02:44:46;;;;;;;4.90;3.10;;;;;;;;;;5053372;28;20049;-72
2022/04/03 02:47:14;;;;;;;5.05;3.25;;;;;;;;;;5053121;28;20112;-72
2022/04/03 02:49:47;;;;;;;4.82;3.38;;;;;;;;;;5053579;28;20052;-72
2022/04/03 02:52:23;;;;;;;6.47;3.45;;;;;;;;;;5053480;28;20040;-72
2022/04/03 02:54:50;;;;;;;6.25;3.10;;;;;;;;;;5053399;28;20064;-72
2022/04/03 02:57:43;;;;;;;6.47;3.33;;;;;;;;;;5053241;28;20537;-72
2022/04/03 03:00:17;;;;;;;5.40;3.35;;;;;;;;;;5052943;28;20141;-72
2022/04/03 03:02:48;;;;;;;5.77;3.30;;;;;;;;;;5051986;28;20048;-72
2022/04/03 03:05:18;;;;;;;6.15;3.20;;;;;;;;;;5053175;28;20273;-73
2022/04/03 03:07:49;;;;;;;7.45;3.47;;;;;;;;;;5053322;28;20130;-73
2022/04/03 03:10:21;;;;;;;5.70;3.58;;;;;;;;;;5053257;28;20045;-73
2022/04/03 03:12:53;;;;;;;4.82;3.50;;;;;;;;;;5052769;28;20041;-73
2022/04/03 03:15:21;;;;;;;5.50;3.67;;;;;;;;;;5052897;28;20041;-73
2022/04/03 03:17:52;;;;;;;7.93;3.97;;;;;;;;;;5053097;28;20045;-72
2022/04/03 03:20:21;;;;;;;5.78;3.78;;;;;;;;;;5052821;28;20037;-72
2022/04/03 03:22:49;;;;;;;11.02;4.30;;;;;;;;;;5052924;28;20119;-72
2022/04/03 03:25:20;;;;;;;7.68;4.20;;;;;;;;;;5052699;28;20033;-73
2022/04/03 03:27:59;;;;;;;6.40;4.10;;;;;;;;;;5053183;28;20446;-72
2022/04/03 03:30:27;;;;;;;6.68;4.50;;;;;;;;;;5052983;28;20068;-72
2022/04/03 03:32:54;;;;;;;8.25;4.53;;;;;;;;;;5052310;28;20041;-72
2022/04/03 03:35:47;;;;;;;7.70;4.65;;;;;;;;;;5053145;28;20429;-72
2022/04/03 03:38:18;;;;;;;9.13;5.50;;;;;;;;;;5052562;28;20076;-72
2022/04/03 03:40:48;;;;;;;7.15;4.63;;;;;;;;;;5053240;28;20376;-72
2022/04/03 03:43:15;;;;;;;8.63;5.40;;;;;;;;;;5051601;28;20411;-73
2022/04/03 03:46:08;;;;;;;9.05;6.18;;;;;;;;;;5052768;28;20398;-73
2022/04/03 03:48:41;;;;;;;8.10;5.65;;;;;;;;;;5052747;28;20128;-72
2022/04/03 03:51:11;;;;;;;8.13;5.65;;;;;;;;;;5053491;28;20049;-72
2022/04/03 03:54:04;;;;;;;7.72;5.45;;;;;;;;;;5052501;28;20045;-73
2022/04/03 03:57:03;;;;;;;9.65;6.22;;;;;;;;;;5052752;28;20060;-72
2022/04/03 03:59:34;;;;;;;7.38;5.55;;;;;;;;;;5052538;28;20045;-73
2022/04/03 04:02:08;;;;;;;8.18;5.60;;;;;;;;;;5052294;28;20491;-72
2022/04/03 04:04:39;;;;;;;14.10;7.85;;;;;;;;;;5052448;28;20041;-73
2022/04/03 04:07:09;;;;;;;8.75;6.20;;;;;;;;;;5052524;28;20068;-73
2022/04/03 04:09:42;;;;;;;8.05;5.40;;;;;;;;;;5055032;28;20522;-73
2022/04/03 04:12:15;;;;;;;9.35;5.65;;;;;;;;;;5055653;28;20488;-73
2022/04/03 04:15:08;;;;;;;9.15;5.38;;;;;;;;;;5056051;28;20080;-73
2022/04/03 04:17:38;;;;;;;8.38;5.82;;;;;;;;;;5055753;28;20120;-73
2022/04/03 04:20:07;;;;;;;8.63;5.65;;;;;;;;;;5056065;28;20045;-73
2022/04/03 04:22:36;;;;;;;10.07;6.38;;;;;;;;;;5055771;28;20495;-73
2022/04/03 04:25:14;;;;;;;7.90;6.20;;;;;;;;;;5055834;28;20063;-73
2022/04/03 04:27:48;;;;;;;8.27;5.82;;;;;;;;;;5055706;28;20045;-73
2022/04/03 04:30:17;;;;;;;9.38;5.93;;;;;;;;;;5055895;28;20044;-73
2022/04/03 04:32:47;;;;;;;8.85;5.95;;;;;;;;;;5055689;28;20049;-73
2022/04/03 04:35:19;;;;;;;15.15;7.93;;;;;;;;;;5055741;28;20049;-73
2022/04/03 04:37:48;;;;;;;14.98;7.72;;;;;;;;;;5054658;28;20380;-73
2022/04/03 04:40:17;;;;;;;11.95;6.80;;;;;;;;;;5055171;28;20112;-75
2022/04/03 04:42:44;;;;;;;9.00;6.13;;;;;;;;;;5055639;28;20412;-75
2022/04/03 04:45:16;;;;;;;11.82;6.72;;;;;;;;;;5055283;28;20487;-75
2022/04/03 04:47:50;;;;;;;9.65;6.53;;;;;;;;;;5054939;28;20058;-75
2022/04/03 04:50:21;;;;;;;7.32;5.50;;;;;;;;;;5055144;28;20108;-76
2022/04/03 04:53:13;;;;;;;7.45;5.55;;;;;;;;;;5055378;28;20075;-76
2022/04/03 04:55:44;;;;;;;11.18;6.90;;;;;;;;;;5035599;28;20052;-75
2022/04/03 04:58:14;;;;;;;10.55;6.10;;;;;;;;;;5034750;28;20041;-73
2022/04/03 05:01:07;;;;;;;8.93;5.32;;;;;;;;;;5035268;28;20048;-74
2022/04/03 05:04:00;;;;;;;7.10;5.18;;;;;;;;;;5035115;28;20503;-76
2022/04/03 05:06:33;;;;;;;6.35;4.78;;;;;;;;;;5035598;28;20404;-76
2022/04/03 05:09:03;;;;;;;6.45;4.93;;;;;;;;;;5035462;28;20037;-75
2022/04/03 05:12:00;;;;;;;7.43;4.70;;;;;;;;;;5034707;28;20041;-75
2022/04/03 05:14:28;;;;;;;7.85;5.15;;;;;;;;;;5034896;28;20045;-75
2022/04/03 05:17:07;;;;;;;7.97;4.65;;;;;;;;;;5035000;28;20045;-74
2022/04/03 05:19:35;;;;;;;6.45;4.32;;;;;;;;;;5034926;28;20120;-75
2022/04/03 05:22:14;;;;;;;7.53;4.95;;;;;;;;;;5034621;28;20033;-73
2022/04/03 05:24:44;;;;;;;5.53;4.80;;;;;;;;;;5032963;28;20050;-74
2022/04/03 05:27:16;;;;;;;9.23;4.68;;;;;;;;;;5035157;28;20037;-75
2022/04/03 05:30:09;;;;;;;7.45;4.78;;;;;;;;;;5034758;28;20053;-75
2022/04/03 05:32:42;;;;;;;6.63;4.97;;;;;;;;;;5034679;28;20088;-76
2022/04/03 05:35:14;;;;;;;8.35;5.72;;;;;;;;;;5033261;28;20558;-76
2022/04/03 05:37:43;;;;;;;7.32;5.40;;;;;;;;;;5050320;28;20095;-76
2022/04/03 05:40:16;;;;;;;8.43;5.20;;;;;;;;;;5034876;28;20484;-76
2022/04/03 05:42:44;;;;;;;9.55;5.88;;;;;;;;;;5033097;28;20103;-75
2022/04/03 05:45:14;;;;;;;9.90;5.40;;;;;;;;;;5034966;28;20172;-77
2022/04/03 05:50:54;;;;;;;8.65;5.30;;;;;;;;;;5034262;28;20096;-78
2022/04/03 05:53:25;;;;;;;6.43;4.78;;;;;;;;;;5033994;28;20041;-78
2022/04/03 05:56:01;;;;;;;7.93;5.05;;;;;;;;;;5034665;28;20099;-77
2022/04/03 05:58:28;;;;;;;6.90;5.45;;;;;;;;;;5034531;28;20072;-78
2022/04/03 06:00:58;;;;;;;7.55;5.40;;;;;;;;;;5032567;28;20072;-75
2022/04/03 06:03:31;;;;;;;6.80;4.60;;;;;;;;;;5034472;28;20056;-73
2022/04/03 06:06:02;;;;;;;7.63;5.38;;;;;;;;;;5033967;28;20050;-80
2022/04/03 06:08:32;;;;;;;7.03;5.07;;;;;;;;;;5033900;28;20045;-73
2022/04/03 06:11:07;;;;;;;8.77;4.85;;;;;;;;;;5034177;28;20048;-73
2022/04/03 06:13:37;;;;;;;7.05;5.05;;;;;;;;;;5049470;28;20446;-73
2022/04/03 06:16:10;;;;;;;6.90;4.80;;;;;;;;;;5033820;28;20045;-74
2022/04/03 06:18:41;;;;;;;7.50;5.20;;;;;;;;;;5033997;28;20041;-74
2022/04/03 06:21:11;;;;;;;20.35;14.68;;;;;;;;;;5033646;28;20488;-74
2022/04/03 06:24:04;;;;;;;6.43;5.32;;;;;;;;;;5033437;28;20099;-76
2022/04/03 06:26:37;;;;;;;9.00;5.45;;;;;;;;;;5033592;28;20038;-75
2022/04/03 06:29:13;;;;;;;6.95;5.45;;;;;;;;;;5048692;28;20041;-75
2022/04/03 06:31:46;;;;;;;6.28;5.35;;;;;;;;;;5033641;28;20108;-74
2022/04/03 06:34:18;;;;;;;6.63;5.38;;;;;;;;;;5033219;28;20037;-74
2022/04/03 06:36:53;;;;;;;7.22;5.20;;;;;;;;;;5033547;28;20041;-75
2022/04/03 06:39:21;;;;;;;9.35;5.43;;;;;;;;;;5034137;28;20048;-75
2022/04/03 06:42:01;;;;;;;8.45;6.15;;;;;;;;;;5033014;28;20052;-74
2022/04/03 06:44:30;;;;;;;9.43;6.38;;;;;;;;;;5048525;28;20080;-73
2022/04/03 06:47:06;;;;;;;12.38;6.07;;;;;;;;;;5033568;28;20391;-71
2022/04/03 06:49:34;;;;;;;8.45;5.93;;;;;;;;;;5033380;28;20045;-72
2022/04/03 06:52:01;;;;;;;6.15;5.40;;;;;;;;;;5038305;28;20049;-72
2022/04/03 06:54:29;;;;;;;9.05;6.47;;;;;;;;;;5052835;28;20412;-71
2022/04/03 06:56:56;;;;;;;9.30;5.90;;;;;;;;;;5052448;28;20049;-71
2022/04/03 06:59:24;;;;;;;6.88;5.32;;;;;;;;;;5050579;28;20277;-72
2022/04/03 07:01:51;;;;;;;8.40;6.50;;;;;;;;;;5044819;28;20068;-73
2022/04/03 07:04:19;;;;;;;10.18;6.95;;;;;;;;;;5052626;28;20072;-72
2022/04/03 07:06:48;;;;;;;8.57;6.07;;;;;;;;;;5043569;28;20064;-72
2022/04/03 07:09:15;;;;;;;10.13;6.78;;;;;;;;;;5033429;28;20111;-72
2022/04/03 07:11:47;;;;;;;9.63;6.78;;;;;;;;;;5033154;28;20053;-72
2022/04/03 07:14:26;;;;;;;9.25;6.65;;;;;;;;;;5033490;28;20037;-73
2022/04/03 07:16:54;;;;;;;7.70;6.85;;;;;;;;;;5048784;28;20069;-72
2022/04/03 07:19:37;;;;;;;7.85;6.90;;;;;;;;;;5033018;28;20121;-72
2022/04/03 07:22:05;;;;;;;9.85;7.20;;;;;;;;;;5033056;28;20046;-72
2022/04/03 07:24:40;;;;;;;10.82;8.20;;;;;;;;;;5031488;28;20049;-72
2022/04/03 07:27:08;;;;;;;10.43;8.13;;;;;;;;;;5033287;28;20046;-72
2022/04/03 07:29:55;;;;;;;13.77;8.65;;;;;;;;;;5032921;28;20048;-71
2022/04/03 07:32:23;;;;;;;12.73;9.65;;;;;;;;;;5031430;28;20484;-72
2022/04/03 07:35:03;;;;;;;12.57;9.35;;;;;;;;;;5032873;28;20042;-72
2022/04/03 07:37:36;;;;;;;35.92;31.63;;;;;;;;;;5032965;28;20072;-72
2022/04/03 07:43:58;;;;;;;12.10;10.40;;;;;;;;;;5034395;28;20107;-72
2022/04/03 07:50:12;;;;;;;14.00;10.40;;;;;;;;;;5036358;28;20050;-71
2022/04/03 07:53:27;;;;;;;14.55;11.35;;;;;;;;;;5035611;28;20541;-70
2022/04/03 07:55:57;;;;;;;14.65;11.18;;;;;;;;;;5036239;28;20057;-71
2022/04/03 07:58:30;;;;;;;15.63;11.30;;;;;;;;;;5036475;28;20037;-72
2022/04/03 08:01:05;;;;;;;20.77;15.35;;;;;;;;;;5036254;28;20504;-71
2022/04/03 08:03:37;;;;;;;18.77;11.10;;;;;;;;;;5036655;28;20377;-71
2022/04/03 08:06:10;;;;;;;14.00;10.15;;;;;;;;;;5044666;28;20084;-72
2022/04/03 08:08:41;;;;;;;14.77;9.77;;;;;;;;;;5056426;28;20037;-71
2022/04/03 08:11:10;;;;;;;16.85;12.20;;;;;;;;;;5056110;28;20041;-70
2022/04/03 08:13:39;;;;;;;21.15;13.90;;;;;;;;;;5056209;28;20047;-70
2022/04/03 08:16:15;;;;;;;13.65;9.73;;;;;;;;;;5056315;28;20099;-71
2022/04/03 08:18:46;;;;;;;14.07;9.60;;;;;;;;;;5056072;28;20408;-70
2022/04/03 08:21:14;;;;;;;16.05;10.50;;;;;;;;;;5056250;28;20068;-70
2022/04/03 08:23:43;;;;;;;14.13;10.43;;;;;;;;;;5054688;28;20376;-70
2022/04/03 08:26:19;;;;;;;15.18;10.50;;;;;;;;;;5055935;28;20041;-71
2022/04/03 08:28:46;;;;;;;16.13;10.27;;;;;;;;;;5055801;28;20051;-72
2022/04/03 08:31:16;;;;;;;18.55;9.30;;;;;;;;;;5055831;28;20120;-71
2022/04/03 08:33:47;;;;;;;17.00;8.07;;;;;;;;;;5055147;28;20045;-71
2022/04/03 08:36:17;;;;;;;12.52;8.88;;;;;;;;;;5055647;28;20433;-74
2022/04/03 08:38:45;;;;;;;11.98;9.25;;;;;;;;;;5055521;28;20475;-74
2022/04/03 08:41:22;;;;;;;15.52;9.60;;;;;;;;;;5052542;28;20372;-72
2022/04/03 08:43:51;;;;;;;14.40;9.82;;;;;;;;;;5035247;28;20057;-73
2022/04/03 08:46:20;;;;;;;14.55;9.80;;;;;;;;;;5035623;28;20510;-73
2022/04/03 08:48:51;;;;;;;15.38;8.48;;;;;;;;;;5035476;28;20103;-74
2022/04/03 08:51:21;;;;;;;17.40;9.88;;;;;;;;;;5035291;28;20046;-73
2022/04/03 08:53:53;;;;;;;18.35;10.82;;;;;;;;;;5035094;28;20065;-73
2022/04/03 08:56:26;;;;;;;22.02;11.57;;;;;;;;;;5035218;28;20095;-72
2022/04/03 08:58:53;;;;;;;26.40;12.50;;;;;;;;;;5035396;28;20077;-72
2022/04/03 09:01:21;;;;;;;17.85;11.85;;;;;;;;;;5048298;28;20044;-72
2022/04/03 09:03:50;;;;;;;20.20;12.43;;;;;;;;;;5054489;28;20128;-73
2022/04/03 09:06:18;;;;;;;17.77;11.70;;;;;;;;;;5055147;28;20072;-73
2022/04/03 09:08:48;;;;;;;17.90;10.88;;;;;;;;;;5055149;28;20068;-73
2022/04/03 09:11:19;;;;;;;19.85;12.98;;;;;;;;;;5050885;28;20051;-73
2022/04/03 09:13:49;;;;;;;27.63;15.35;;;;;;;;;;5045277;28;20071;-73
2022/04/03 09:16:18;;;;;;;17.73;12.20;;;;;;;;;;5055126;28;20045;-73
2022/04/03 09:18:50;;;;;;;20.42;11.80;;;;;;;;;;5054790;28;20049;-73
2022/04/03 09:21:23;;;;;;;17.83;13.18;;;;;;;;;;5055226;28;20415;-75
2022/04/03 09:23:58;;;;;;;29.70;21.35;;;;;;;;;;5055071;28;20376;-73
2022/04/03 09:26:26;;;;;;;29.45;16.88;;;;;;;;;;5044673;28;20057;-70
2022/04/03 09:29:14;;;;;;;47.08;35.20;;;;;;;;;;5034832;28;20041;-72
2022/04/03 09:32:01;;;;;;;95.43;64.57;;;;;;;;;;5051842;28;20048;-66
2022/04/03 09:34:57;;;;;;;34.33;26.60;;;;;;;;;;5054502;28;20037;-65
2022/04/03 09:37:31;;;;;;;18.55;11.02;;;;;;;;;;5054248;28;20120;-66
2022/04/03 09:39:59;;;;;;;91.10;57.03;;;;;;;;;;5054041;28;20051;-66
2022/04/03 09:42:26;;;;;;;74.20;41.15;;;;;;;;;;5049767;28;20071;-64
2022/04/03 09:45:00;;;;;;;56.15;34.67;;;;;;;;;;5049649;28;20432;-65
2022/04/03 09:47:33;;;;;;;28.10;19.35;;;;;;;;;;5034238;28;20448;-66
2022/04/03 09:50:02;;;;;;;45.50;30.23;;;;;;;;;;5034295;28;20038;-66
2022/04/03 09:52:33;;;;;;;93.10;63.75;;;;;;;;;;5034566;28;20041;-64
2022/04/03 09:55:06;;;;;;;43.60;29.92;;;;;;;;;;5034599;28;20454;-66
2022/04/03 09:57:36;;;;;;;20.77;14.63;;;;;;;;;;5034262;28;20052;-65
2022/04/03 10:00:05;;;;;;;12.73;8.07;;;;;;;;;;5034277;28;20136;-65
2022/04/03 10:02:38;;;;;;;12.27;9.07;;;;;;;;;;5034110;28;20496;-66
2022/04/03 10:05:06;;;;;;;14.93;9.15;;;;;;;;;;5051908;28;20080;-69
2022/04/03 10:07:35;;;;;;;13.68;8.70;;;;;;;;;;5053526;28;20045;-65
2022/04/03 10:10:03;;;;;;;14.10;8.65;;;;;;;;;;5053844;28;20440;-65
2022/04/03 10:12:31;;;;;;;11.13;7.50;;;;;;;;;;5053548;28;20049;-65
2022/04/03 10:14:59;;;;;;;20.02;7.18;;;;;;;;;;5053506;28;20063;-66
2022/04/03 10:17:28;;;;;;;11.50;7.70;;;;;;;;;;5053928;28;20128;-66
2022/04/03 10:19:55;;;;;;;10.02;6.35;;;;;;;;;;5054159;28;20045;-65
2022/04/03 10:22:26;;;;;;;10.77;6.72;;;;;;;;;;5052708;28;20040;-67
2022/04/03 10:24:56;;;;;;;13.40;7.18;;;;;;;;;;5108032;22;20136;-64
2022/04/03 10:27:25;;;;;;;12.68;7.43;;;;;;;;;;5072846;28;20040;-64
2022/04/03 10:29:58;;;;;;;12.23;7.40;;;;;;;;;;5073614;28;20037;-64
2022/04/03 10:32:30;;;;;;;9.85;7.15;;;;;;;;;;5073565;28;20044;-64
2022/04/03 10:35:00;;;;;;;11.77;6.82;;;;;;;;;;5072782;28;20045;-64
2022/04/03 10:37:38;;;;;;;12.68;6.65;;;;;;;;;;5071663;28;20036;-64
2022/04/03 10:40:06;;;;;;;10.73;5.35;;;;;;;;;;5052683;28;20056;-63
2022/04/03 10:45:46;;;;;;;12.07;5.90;;;;;;;;;;5019194;28;20059;-68
2022/04/03 10:48:21;;;;;;;17.85;6.45;;;;;;;;;;5032807;28;20038;-68
2022/04/03 10:51:05;;;;;;;13.68;7.10;;;;;;;;;;5033432;28;20037;-69
2022/04/03 10:53:35;;;;;;;11.10;6.60;;;;;;;;;;5030494;28;20068;-69
2022/04/03 10:56:08;;;;;;;10.45;6.65;;;;;;;;;;5013411;28;20498;-68
2022/04/03 10:58:43;;;;;;;15.65;5.75;;;;;;;;;;5012731;28;20042;-68
2022/04/03 11:01:12;;;;;;;10.48;6.00;;;;;;;;;;5013370;28;20046;-69
2022/04/03 11:03:41;;;;;;;9.10;6.63;;;;;;;;;;5012114;28;20045;-68
2022/04/03 11:06:21;;;;;;;10.75;6.78;;;;;;;;;;5013579;28;20075;-68
2022/04/03 11:09:22;;;;;;;11.40;6.70;;;;;;;;;;5013023;28;20133;-67
2022/04/03 11:11:54;;;;;;;10.77;6.30;;;;;;;;;;5002303;28;20050;-67
2022/04/03 11:17:53;;;;;;;12.40;6.53;;;;;;;;;;4968478;28;20062;-63
2022/04/03 11:20:31;;;;;;;14.25;7.00;;;;;;;;;;4978625;28;20043;-63
2022/04/03 11:23:01;;;;;;;14.80;7.63;;;;;;;;;;4976942;28;20101;-63
2022/04/03 11:25:30;;;;;;;11.32;7.85;;;;;;;;;;4977807;28;20051;-63
2022/04/03 11:27:58;;;;;;;16.35;8.63;;;;;;;;;;4977951;28;20047;-63
2022/04/03 11:30:26;;;;;;;13.25;8.65;;;;;;;;;;4975939;28;20049;-63
2022/04/03 11:32:54;;;;;;;11.80;9.07;;;;;;;;;;4977195;28;20051;-63
2022/04/03 11:35:35;;;;;;;12.30;8.73;;;;;;;;;;4977651;28;20069;-64
2022/04/03 11:38:04;;;;;;;13.45;8.70;;;;;;;;;;4976067;28;20046;-62
2022/04/03 11:40:33;;;;;;;15.95;9.88;;;;;;;;;;4977208;28;20054;-62
2022/04/03 11:43:11;;;;;;;14.48;9.85;;;;;;;;;;4977085;28;20047;-64
2022/04/03 11:45:40;;;;;;;14.25;9.85;;;;;;;;;;4976655;28;20556;-64
2022/04/03 11:48:21;;;;;;;13.30;9.00;;;;;;;;;;4977012;28;20581;-62
2022/04/03 11:50:51;;;;;;;15.00;8.93;;;;;;;;;;4977463;28;20497;-64
2022/04/03 11:53:18;;;;;;;13.25;8.30;;;;;;;;;;4977323;28;20093;-64
2022/04/03 11:55:47;;;;;;;14.15;9.50;;;;;;;;;;4977622;28;20070;-64
2022/04/03 11:58:15;;;;;;;13.20;8.85;;;;;;;;;;4977634;28;20074;-64
2022/04/03 12:00:46;;;;;;;12.50;9.18;;;;;;;;;;4977556;28;20061;-64
2022/04/03 12:03:13;;;;;;;15.07;8.45;;;;;;;;;;4977652;28;20524;-62
2022/04/03 12:05:42;;;;;;;12.95;8.65;;;;;;;;;;4977330;28;20070;-64
2022/04/03 12:08:09;;;;;;;10.98;7.50;;;;;;;;;;4977498;28;20130;-63
2022/04/03 12:10:40;;;;;;;15.40;7.45;;;;;;;;;;4977698;28;20046;-63
2022/04/03 12:13:08;;;;;;;15.18;6.07;;;;;;;;;;4975785;28;20122;-64
2022/04/03 12:15:38;;;;;;;10.30;5.13;;;;;;;;;;4976859;28;20043;-63
2022/04/03 12:18:25;;;;;;;11.50;5.80;;;;;;;;;;4978128;28;20054;-65
2022/04/03 12:20:54;;;;;;;12.25;5.95;;;;;;;;;;4978186;28;20054;-64
2022/04/03 12:23:24;;;;;;;9.68;5.72;;;;;;;;;;4977352;28;20054;-64
2022/04/03 12:25:52;;;;;;;6.93;5.32;;;;;;;;;;4977170;28;20055;-64
2022/04/03 12:28:22;;;;;;;9.93;5.30;;;;;;;;;;4976531;28;20046;-64
2022/04/03 12:30:57;;;;;;;9.02;5.10;;;;;;;;;;4975512;28;20054;-64
2022/04/03 12:33:25;;;;;;;16.80;6.10;;;;;;;;;;4974407;28;20515;-63
2022/04/03 12:35:52;;;;;;;12.82;6.18;;;;;;;;;;4975209;28;20043;-63
2022/04/03 12:38:33;;;;;;;9.32;6.65;;;;;;;;;;4976353;28;20055;-63
2022/04/03 12:41:01;;;;;;;10.30;6.18;;;;;;;;;;4975105;28;20137;-64
2022/04/03 12:43:42;;;;;;;11.75;6.80;;;;;;;;;;4976210;28;20141;-65
2022/04/03 12:46:09;;;;;;;9.80;6.32;;;;;;;;;;4976087;28;20134;-63
2022/04/03 12:48:38;;;;;;;8.40;6.10;;;;;;;;;;4976142;28;20504;-63
2022/04/03 12:51:11;;;;;;;11.88;6.78;;;;;;;;;;4976808;28;20048;-63
2022/04/03 12:53:50;;;;;;;9.10;6.43;;;;;;;;;;4976817;28;20114;-63
2022/04/03 12:58:24;;;;;;;13.00;6.75;;;;;;;;;;4976615;28;20039;-62
2022/04/03 12:59:19;;;;;;;10.38;6.05;;;;;;;;;;4975514;28;20138;-63
2022/04/03 13:01:52;;;;;;;9.32;5.93;;;;;;;;;;4975999;28;20055;-63
2022/04/03 13:04:30;;;;;;;10.82;5.95;;;;;;;;;;4976541;28;20138;-63
2022/04/03 13:06:59;;;;;;;8.88;5.57;;;;;;;;;;4975033;28;20047;-63
2022/04/03 13:09:30;;;;;;;12.13;6.07;;;;;;;;;;4976442;28;20046;-63
2022/04/03 13:11:59;;;;;;;9.57;4.97;;;;;;;;;;4975706;28;20086;-63
2022/04/03 13:14:35;;;;;;;14.25;5.45;;;;;;;;;;4975708;28;20512;-67
2022/04/03 13:17:04;;;;;;;13.75;5.97;;;;;;;;;;4976013;28;20394;-63
2022/04/03 13:19:44;;;;;;;8.13;5.55;;;;;;;;;;4976115;28;20042;-63
2022/04/03 13:22:15;;;;;;;13.02;5.38;;;;;;;;;;4976013;28;20046;-63
2022/04/03 13:25:11;;;;;;;15.82;5.30;;;;;;;;;;5039268;22;20087;-65
2022/04/03 13:27:39;;;;;;;16.40;5.38;;;;;;;;;;5054334;28;20051;-64
2022/04/03 13:30:07;;;;;;;11.77;5.07;;;;;;;;;;5063952;28;20044;-65
2022/04/03 13:32:37;;;;;;;10.07;4.80;;;;;;;;;;5076280;28;20051;-64
2022/04/03 13:35:05;;;;;;;17.48;5.13;;;;;;;;;;5074528;28;20052;-64
2022/04/03 13:37:34;;;;;;;10.32;5.07;;;;;;;;;;5074337;28;20043;-64
2022/04/03 13:40:01;;;;;;;19.23;6.28;;;;;;;;;;5073584;28;20037;-64
2022/04/03 13:42:30;;;;;;;16.10;4.85;;;;;;;;;;5073372;28;20065;-64
2022/04/03 13:44:57;;;;;;;16.70;4.65;;;;;;;;;;5072818;28;20055;-64
2022/04/03 13:47:27;;;;;;;9.93;4.47;;;;;;;;;;5073573;28;20124;-65
2022/04/03 13:49:56;;;;;;;9.63;4.75;;;;;;;;;;5074159;28;20483;-62
2022/04/03 13:52:25;;;;;;;9.90;5.25;;;;;;;;;;5074261;28;20530;-63
2022/04/03 13:54:54;;;;;;;26.05;6.30;;;;;;;;;;5072982;28;20548;-63
2022/04/03 13:57:23;;;;;;;12.52;6.07;;;;;;;;;;5074345;28;20060;-64
2022/04/03 13:59:53;;;;;;;17.25;4.85;;;;;;;;;;5074024;28;20052;-65
2022/04/03 14:02:22;;;;;;;11.02;5.00;;;;;;;;;;5074018;28;20044;-64
2022/04/03 14:04:52;;;;;;;13.98;5.22;;;;;;;;;;5073702;28;20036;-64
2022/04/03 14:07:22;;;;;;;12.20;5.68;;;;;;;;;;5073776;28;20074;-64
2022/04/03 14:09:57;;;;;;;7.55;5.90;;;;;;;;;;5074587;28;20049;-64
2022/04/03 14:12:26;;;;;;;9.57;5.28;;;;;;;;;;5074546;28;20044;-65
2022/04/03 14:14:55;;;;;;;12.18;5.38;;;;;;;;;;5053843;28;20044;-64
2022/04/03 14:17:25;;;;;;;16.20;6.13;;;;;;;;;;5077986;28;20123;-64
2022/04/03 14:19:54;;;;;;;12.32;5.28;;;;;;;;;;5074153;28;20495;-65
2022/04/03 14:22:23;;;;;;;11.50;5.80;;;;;;;;;;5073737;28;20483;-64
2022/04/03 14:24:55;;;;;;;12.23;5.90;;;;;;;;;;5073558;28;20055;-65
2022/04/03 14:27:23;;;;;;;13.88;6.05;;;;;;;;;;5073609;28;20045;-65
2022/04/03 14:29:56;;;;;;;10.60;5.78;;;;;;;;;;5073832;28;20071;-64
2022/04/03 14:32:24;;;;;;;13.85;5.35;;;;;;;;;;5073205;28;20490;-64
2022/04/03 14:34:55;;;;;;;12.13;5.43;;;;;;;;;;5074020;28;20060;-62
2022/04/03 14:37:42;;;;;;;9.30;5.03;;;;;;;;;;5073297;28;20072;-63
2022/04/03 14:40:10;;;;;;;9.93;5.50;;;;;;;;;;5073933;28;20041;-64
2022/04/03 14:43:07;;;;;;;9.30;4.75;;;;;;;;;;5072484;28;20042;-64
2022/04/03 14:46:18;;;;;;;10.27;5.07;;;;;;;;;;5073458;28;20060;-63
2022/04/03 14:48:46;;;;;;;13.10;5.63;;;;;;;;;;5073285;28;20465;-64
2022/04/03 14:51:38;;;;;;;9.93;5.25;;;;;;;;;;5073914;28;20049;-65
2022/04/03 14:54:31;;;;;;;8.25;5.85;;;;;;;;;;5053421;28;20083;-65
2022/04/03 14:57:03;;;;;;;8.98;5.43;;;;;;;;;;5059996;28;20090;-65
2022/04/03 14:59:31;;;;;;;9.35;5.65;;;;;;;;;;5073182;28;20098;-65
2022/04/03 15:01:58;;;;;;;12.23;5.70;;;;;;;;;;5073233;28;20131;-65
2022/04/03 15:04:27;;;;;;;9.68;6.20;;;;;;;;;;5072870;28;20098;-65
2022/04/03 15:06:54;;;;;;;10.73;6.05;;;;;;;;;;5073195;28;20124;-66
2022/04/03 15:09:31;;;;;;;10.45;6.05;;;;;;;;;;5072986;28;20560;-65
2022/04/03 15:12:00;;;;;;;10.05;6.50;;;;;;;;;;5073103;28;20053;-66
2022/04/03 15:14:29;;;;;;;10.20;6.10;;;;;;;;;;5072779;28;20052;-65
2022/04/03 15:16:57;;;;;;;11.23;6.82;;;;;;;;;;5073022;28;20051;-65
2022/04/03 15:19:25;;;;;;;13.85;7.00;;;;;;;;;;5072949;28;20048;-66
2022/04/03 15:21:55;;;;;;;13.80;6.38;;;;;;;;;;5073281;28;20127;-66
2022/04/03 15:24:23;;;;;;;12.82;6.00;;;;;;;;;;5072593;28;20045;-65
2022/04/03 15:26:58;;;;;;;10.35;6.60;;;;;;;;;;5072837;28;20060;-65